Time;durP1;ratioP1;P1;durP2;ratioP2;P2;SDS_P1;SDS_P2;PMS_P1;PMS_P2;Temp;Humidity;BMP_temperature;BMP_pressure;BME280_temperature;BME280_humidity;BME280_pressure;Samples;Min_cycle;Max_cycle;Signal;HPM_P1;HPM_P2
2022/04/04 00:00:50;;;;;;;;;;;3.90;1.00;;;;;;5027199;28;20036;-82
2022/04/04 00:03:15;;;;;;;;;;;3.90;1.00;;;;;;5049505;28;20297;-82
2022/04/04 00:05:41;;;;;;;;;;;3.80;1.00;;;;;;5049254;28;20336;-82
2022/04/04 00:08:06;;;;;;;;;;;3.80;1.00;;;;;;5052738;28;19920;-82
2022/04/04 00:10:32;;;;;;;;;;;3.80;1.00;;;;;;5038320;28;19919;-82
2022/04/04 00:12:58;;;;;;;;;;;3.70;1.00;;;;;;5043717;28;19917;-82
2022/04/04 00:15:23;;;;;;;;;;;3.70;35.30;;;;;;5033598;28;19912;-81
2022/04/04 00:17:49;;;;;;;;;;;3.70;99.90;;;;;;5047186;28;19917;-82
2022/04/04 00:20:15;;;;;;;;;;;3.60;99.90;;;;;;5047303;28;20332;-82
2022/04/04 00:22:41;;;;;;;;;;;3.60;99.90;;;;;;5047185;28;19912;-82
2022/04/04 00:25:07;;;;;;;;;;;3.60;99.90;;;;;;5030991;28;19919;-82
2022/04/04 00:27:33;;;;;;;;;;;3.50;99.90;;;;;;5037369;28;19913;-82
2022/04/04 00:29:58;;;;;;;;;;;3.50;1.00;;;;;;5042798;28;20373;-81
2022/04/04 00:32:24;;;;;;;;;;;3.40;1.00;;;;;;5042248;28;19948;-82
2022/04/04 00:34:49;;;;;;;;;;;3.50;1.00;;;;;;5048624;28;19963;-82
2022/04/04 00:37:14;;;;;;;;;;;3.40;35.40;;;;;;5028933;28;19913;-81
2022/04/04 00:39:40;;;;;;;;;;;3.40;95.90;;;;;;5050010;28;19913;-81
2022/04/04 00:42:06;;;;;;;;;;;3.40;99.90;;;;;;5037904;28;20274;-81
2022/04/04 00:44:32;;;;;;;;;;;3.30;99.90;;;;;;5043909;28;19912;-82
2022/04/04 00:46:58;;;;;;;;;;;3.40;99.90;;;;;;5043504;28;19921;-81
2022/04/04 00:49:23;;;;;;;;;;;3.30;99.90;;;;;;5051353;28;20007;-81
2022/04/04 00:51:49;;;;;;;;;;;3.30;99.90;;;;;;5025300;28;19928;-81
2022/04/04 00:54:14;;;;;;;;;;;3.20;1.00;;;;;;5050540;28;19916;-81
2022/04/04 00:56:40;;;;;;;;;;;3.20;1.00;;;;;;5029430;28;19943;-81
2022/04/04 00:59:05;;;;;;;;;;;3.20;1.00;;;;;;5048371;28;19913;-82
2022/04/04 01:01:34;;;;;;;;;;;3.10;20.20;;;;;;5043118;28;19919;-81
2022/04/04 01:03:59;;;;;;;;;;;3.10;99.90;;;;;;5046831;28;19925;-83
2022/04/04 01:06:25;;;;;;;;;;;3.10;99.90;;;;;;5046184;28;19913;-80
2022/04/04 01:08:50;;;;;;;;;;;3.10;99.90;;;;;;5047222;28;19920;-82
2022/04/04 01:11:16;;;;;;;;;;;3.00;99.90;;;;;;5042594;28;19919;-80
2022/04/04 01:13:48;;;;;;;;;;;3.00;1.00;;;;;;5046373;28;19921;-80
2022/04/04 01:16:14;;;;;;;;;;;3.00;1.00;;;;;;5049090;28;19948;-80
2022/04/04 01:18:40;;;;;;;;;;;3.00;99.90;;;;;;5048378;28;19913;-82
2022/04/04 01:21:06;;;;;;;;;;;3.00;1.00;;;;;;5040905;28;20270;-82
2022/04/04 01:23:34;;;;;;;;;;;2.90;1.00;;;;;;5032372;28;19917;-82
2022/04/04 01:26:00;;;;;;;;;;;2.90;1.00;;;;;;5043071;28;19925;-82
2022/04/04 01:28:25;;;;;;;;;;;2.90;1.00;;;;;;5033681;28;20012;-83
2022/04/04 01:30:51;;;;;;;;;;;2.90;99.90;;;;;;5021352;28;19940;-82
2022/04/04 01:33:17;;;;;;;;;;;2.90;1.00;;;;;;5033090;28;19960;-82
2022/04/04 01:35:43;;;;;;;;;;;2.80;1.00;;;;;;5032569;28;19920;-83
2022/04/04 01:38:08;;;;;;;;;;;2.90;1.00;;;;;;5036468;28;19917;-82
2022/04/04 01:40:34;;;;;;;;;;;2.80;1.00;;;;;;5032688;28;19913;-82
2022/04/04 01:42:59;;;;;;;;;;;2.80;1.00;;;;;;5011934;28;20285;-79
2022/04/04 01:48:09;;;;;;;;;;;2.70;1.00;;;;;;5032310;28;20424;-82
2022/04/04 01:50:36;;;;;;;;;;;2.70;99.90;;;;;;5032578;28;19919;-80
2022/04/04 01:55:46;;;;;;;;;;;2.70;99.90;;;;;;5034314;28;19924;-84
2022/04/04 01:58:12;;;;;;;;;;;2.70;99.90;;;;;;5040449;28;19936;-83
2022/04/04 02:00:38;;;;;;;;;;;2.70;99.90;;;;;;5032213;28;19913;-83
2022/04/04 02:03:04;;;;;;;;;;;2.70;99.90;;;;;;5036304;28;19917;-83
2022/04/04 02:05:29;;;;;;;;;;;2.70;99.90;;;;;;5035605;28;19935;-83
2022/04/04 02:07:55;;;;;;;;;;;2.70;99.90;;;;;;5037456;28;20288;-83
2022/04/04 02:10:21;;;;;;;;;;;2.70;99.90;;;;;;5036507;28;19913;-83
2022/04/04 02:12:46;;;;;;;;;;;2.70;99.90;;;;;;5036040;28;19967;-83
2022/04/04 02:15:13;;;;;;;;;;;2.70;99.90;;;;;;5036841;28;19932;-83
2022/04/04 02:17:38;;;;;;;;;;;2.70;99.90;;;;;;5032976;28;20413;-82
2022/04/04 02:20:04;;;;;;;;;;;2.70;99.90;;;;;;5033760;28;19960;-81
2022/04/04 02:22:29;;;;;;;;;;;2.70;99.90;;;;;;5034491;28;19944;-82
2022/04/04 02:24:55;;;;;;;;;;;2.70;99.90;;;;;;5033444;28;19917;-83
2022/04/04 02:27:20;;;;;;;;;;;2.70;99.90;;;;;;5039037;28;19960;-80
2022/04/04 02:29:46;;;;;;;;;;;2.70;99.90;;;;;;5038355;28;19935;-81
2022/04/04 02:32:12;;;;;;;;;;;2.70;99.90;;;;;;5036543;28;19921;-80
2022/04/04 02:34:37;;;;;;;;;;;2.70;99.90;;;;;;5034173;28;20289;-81
2022/04/04 02:37:03;;;;;;;;;;;2.60;99.90;;;;;;5034106;28;19932;-80
2022/04/04 02:39:28;;;;;;;;;;;2.60;99.90;;;;;;5034912;28;19925;-81
2022/04/04 02:41:55;;;;;;;;;;;2.60;99.90;;;;;;5033946;28;19953;-81
2022/04/04 02:44:20;;;;;;;;;;;2.60;99.90;;;;;;5033471;28;19913;-80
2022/04/04 02:46:46;;;;;;;;;;;2.60;99.90;;;;;;5033117;28;20442;-82
2022/04/04 02:49:11;;;;;;;;;;;2.60;99.90;;;;;;5034183;28;19917;-80
2022/04/04 02:51:37;;;;;;;;;;;2.60;99.90;;;;;;5032148;28;19936;-79
2022/04/04 02:54:02;;;;;;;;;;;2.60;99.90;;;;;;5031829;28;19921;-80
2022/04/04 02:56:31;;;;;;;;;;;2.60;1.00;;;;;;5034582;28;19971;-80
2022/04/04 02:58:57;;;;;;;;;;;2.50;83.50;;;;;;5032656;28;19927;-81
2022/04/04 03:01:22;;;;;;;;;;;2.50;99.90;;;;;;5028652;28;19913;-81
2022/04/04 03:03:48;;;;;;;;;;;2.50;99.90;;;;;;5032596;28;19928;-81
2022/04/04 03:06:14;;;;;;;;;;;2.50;99.90;;;;;;5034175;28;19925;-81
2022/04/04 03:08:39;;;;;;;;;;;2.50;99.90;;;;;;5017138;28;19913;-81
2022/04/04 03:11:05;;;;;;;;;;;2.50;99.90;;;;;;5033756;28;19928;-81
2022/04/04 03:13:30;;;;;;;;;;;2.50;99.90;;;;;;5033876;28;19924;-80
2022/04/04 03:15:56;;;;;;;;;;;2.50;99.90;;;;;;5016982;28;20378;-81
2022/04/04 03:18:22;;;;;;;;;;;2.60;99.90;;;;;;5034308;28;19914;-81
2022/04/04 03:20:47;;;;;;;;;;;2.50;99.90;;;;;;5035790;28;19913;-83
2022/04/04 03:23:13;;;;;;;;;;;2.50;99.90;;;;;;5033957;28;19920;-80
2022/04/04 03:25:38;;;;;;;;;;;2.50;99.90;;;;;;5037687;28;19918;-80
2022/04/04 03:28:04;;;;;;;;;;;2.50;99.90;;;;;;5036194;28;19929;-81
2022/04/04 03:30:29;;;;;;;;;;;2.50;99.90;;;;;;5037183;28;19913;-81
2022/04/04 03:32:57;;;;;;;;;;;2.60;99.90;;;;;;5031325;28;19925;-81
2022/04/04 03:35:23;;;;;;;;;;;2.60;20.80;;;;;;5019796;28;19925;-81
2022/04/04 03:37:49;;;;;;;;;;;2.60;1.00;;;;;;5042433;28;20373;-81
2022/04/04 03:40:16;;;;;;;;;;;2.60;1.00;;;;;;5041754;28;19944;-81
2022/04/04 03:42:42;;;;;;;;;;;2.60;1.00;;;;;;5043029;28;19912;-81
2022/04/04 03:45:11;;;;;;;;;;;2.60;1.00;;;;;;5043570;28;19920;-81
2022/04/04 03:47:36;;;;;;;;;;;2.60;99.90;;;;;;5026191;28;19917;-81
2022/04/04 03:50:02;;;;;;;;;;;2.70;99.90;;;;;;5039984;28;20008;-82
2022/04/04 03:52:28;;;;;;;;;;;2.70;98.30;;;;;;5042209;28;19917;-80
2022/04/04 03:54:53;;;;;;;;;;;2.70;1.00;;;;;;5045460;28;19980;-81
2022/04/04 03:57:19;;;;;;;;;;;2.80;1.00;;;;;;5045510;28;20023;-81
2022/04/04 03:59:45;;;;;;;;;;;2.80;1.00;;;;;;5042255;28;20342;-80
2022/04/04 04:02:11;;;;;;;;;;;2.80;1.00;;;;;;5042017;28;19913;-80
2022/04/04 04:04:37;;;;;;;;;;;2.80;99.90;;;;;;5023720;28;19924;-81
2022/04/04 04:07:02;;;;;;;;;;;2.80;99.90;;;;;;5037008;28;20782;-80
2022/04/04 04:09:28;;;;;;;;;;;2.90;99.90;;;;;;5021472;28;19925;-80
2022/04/04 04:11:55;;;;;;;;;;;2.90;99.90;;;;;;5039402;28;19921;-81
2022/04/04 04:14:22;;;;;;;;;;;2.90;99.90;;;;;;5038208;28;20014;-81
2022/04/04 04:16:47;;;;;;;;;;;2.90;99.90;;;;;;5038129;28;20010;-81
2022/04/04 04:20:19;;;;;;;;;;;2.90;95.10;;;;;;5038371;28;20587;-80
2022/04/04 04:21:58;;;;;;;;;;;2.90;55.70;;;;;;5038175;28;19917;-80
2022/04/04 04:24:24;;;;;;;;;;;2.90;1.00;;;;;;5038000;28;19920;-80
2022/04/04 04:26:50;;;;;;;;;;;2.90;1.00;;;;;;5020517;28;19920;-81
2022/04/04 04:29:16;;;;;;;;;;;2.90;1.00;;;;;;5038722;28;19989;-80
2022/04/04 04:31:42;;;;;;;;;;;2.90;1.00;;;;;;5038253;28;19917;-80
2022/04/04 04:34:08;;;;;;;;;;;2.90;1.00;;;;;;5038095;28;20356;-80
2022/04/04 04:36:33;;;;;;;;;;;2.90;1.00;;;;;;5036504;28;19921;-80
2022/04/04 04:38:59;;;;;;;;;;;2.90;1.00;;;;;;5037350;28;20004;-80
2022/04/04 04:41:25;;;;;;;;;;;2.90;1.00;;;;;;5038548;28;19913;-80
2022/04/04 04:43:50;;;;;;;;;;;2.90;1.00;;;;;;5017145;28;19913;-82
2022/04/04 04:46:16;;;;;;;;;;;2.90;1.00;;;;;;5038561;28;20388;-82
2022/04/04 04:48:41;;;;;;;;;;;2.90;1.00;;;;;;5034870;28;19961;-83
2022/04/04 04:51:07;;;;;;;;;;;2.90;99.90;;;;;;5031791;28;19928;-82
2022/04/04 04:53:32;;;;;;;;;;;2.90;99.90;;;;;;5034222;28;19987;-82
2022/04/04 04:55:58;;;;;;;;;;;2.90;99.90;;;;;;5031584;28;19917;-82
2022/04/04 04:58:24;;;;;;;;;;;2.90;99.90;;;;;;5035001;28;20389;-81
2022/04/04 05:00:49;;;;;;;;;;;2.90;99.90;;;;;;5018004;28;19913;-83
2022/04/04 05:03:24;;;;;;;;;;;3.00;99.90;;;;;;5037619;28;19924;-83
2022/04/04 05:05:50;;;;;;;;;;;3.00;99.90;;;;;;5036879;28;20293;-84
2022/04/04 05:08:15;;;;;;;;;;;3.10;99.90;;;;;;5020927;28;19917;-80
2022/04/04 05:10:40;;;;;;;;;;;3.10;99.90;;;;;;5020531;28;19959;-83
2022/04/04 05:13:06;;;;;;;;;;;3.10;99.90;;;;;;5018769;28;19960;-83
2022/04/04 05:15:31;;;;;;;;;;;3.10;99.90;;;;;;5037983;28;19920;-83
2022/04/04 05:17:57;;;;;;;;;;;3.20;91.90;;;;;;5037980;28;19913;-83
2022/04/04 05:20:23;;;;;;;;;;;3.20;19.70;;;;;;5037694;28;19917;-81
2022/04/04 05:22:48;;;;;;;;;;;3.30;1.00;;;;;;5037568;28;20011;-83
2022/04/04 05:25:14;;;;;;;;;;;3.40;1.00;;;;;;5033164;28;19917;-83
2022/04/04 05:27:40;;;;;;;;;;;3.40;1.00;;;;;;5038405;28;19920;-83
2022/04/04 05:30:06;;;;;;;;;;;3.40;1.00;;;;;;5035636;28;19921;-84
2022/04/04 05:32:32;;;;;;;;;;;3.50;1.00;;;;;;5037661;28;19914;-83
2022/04/04 05:34:57;;;;;;;;;;;3.50;1.00;;;;;;5019181;28;20061;-84
2022/04/04 05:37:23;;;;;;;;;;;3.60;1.00;;;;;;5038484;28;19921;-86
2022/04/04 05:39:48;;;;;;;;;;;3.70;1.00;;;;;;5034196;28;19963;-86
2022/04/04 05:42:16;;;;;;;;;;;3.90;1.00;;;;;;5016061;28;20829;-85
2022/04/04 05:44:41;;;;;;;;;;;4.00;1.00;;;;;;5036190;28;19971;-85
2022/04/04 05:47:11;;;;;;;;;;;4.00;99.90;;;;;;5015115;28;20377;-84
2022/04/04 05:49:37;;;;;;;;;;;4.10;99.90;;;;;;5036054;28;19920;-85
2022/04/04 05:52:02;;;;;;;;;;;4.10;99.90;;;;;;5015767;28;20301;-85
2022/04/04 05:54:28;;;;;;;;;;;4.10;99.90;;;;;;5034373;28;20410;-85
2022/04/04 05:56:53;;;;;;;;;;;4.20;99.90;;;;;;5033443;28;19971;-85
2022/04/04 05:59:19;;;;;;;;;;;4.20;99.90;;;;;;5032712;28;19913;-84
2022/04/04 06:01:44;;;;;;;;;;;4.30;99.90;;;;;;5034951;28;19913;-85
2022/04/04 06:04:09;;;;;;;;;;;4.40;99.90;;;;;;5033673;28;19925;-83
2022/04/04 06:06:35;;;;;;;;;;;4.60;99.90;;;;;;5034727;28;19913;-83
2022/04/04 06:09:01;;;;;;;;;;;5.00;46.40;;;;;;5035034;28;19913;-83
2022/04/04 06:11:26;;;;;;;;;;;5.40;1.00;;;;;;5036466;28;19925;-83
2022/04/04 06:13:52;;;;;;;;;;;5.60;1.00;;;;;;5016797;28;19917;-84
2022/04/04 06:16:17;;;;;;;;;;;5.90;1.00;;;;;;5033058;28;19928;-83
2022/04/04 06:18:43;;;;;;;;;;;6.00;1.00;;;;;;5033764;28;20039;-82
2022/04/04 06:21:11;;;;;;;;;;;6.80;99.90;;;;;;5035996;28;19984;-81
2022/04/04 06:23:37;;;;;;;;;;;8.50;99.90;;;;;;5031594;28;19925;-83
2022/04/04 06:26:05;;;;;;;;;;;11.00;99.90;;;;;;5033766;28;19914;-81
2022/04/04 06:28:31;;;;;;;;;;;14.00;99.90;;;;;;5034788;28;19920;-81
2022/04/04 06:30:58;;;;;;;;;;;15.80;99.90;;;;;;5033527;28;19913;-82
2022/04/04 06:33:23;;;;;;;;;;;17.10;99.90;;;;;;5036746;28;19917;-83
2022/04/04 06:35:49;;;;;;;;;;;18.30;99.90;;;;;;5018292;28;19920;-83
2022/04/04 06:38:18;;;;;;;;;;;19.40;99.90;;;;;;5033539;28;19928;-83
2022/04/04 06:40:44;;;;;;;;;;;19.50;99.90;;;;;;5036864;28;19919;-83
2022/04/04 06:43:09;;;;;;;;;;;20.40;99.90;;;;;;5032744;28;20357;-82
2022/04/04 06:45:35;;;;;;;;;;;21.00;99.90;;;;;;5018577;28;19913;-83
2022/04/04 06:48:00;;;;;;;;;;;21.30;99.90;;;;;;5032590;28;19913;-82
2022/04/04 06:50:26;;;;;;;;;;;22.70;99.90;;;;;;5036569;28;19959;-83
2022/04/04 06:52:52;;;;;;;;;;;22.10;99.90;;;;;;5018676;28;19917;-84
2022/04/04 06:55:18;;;;;;;;;;;20.40;99.90;;;;;;5017202;28;19924;-83
2022/04/04 06:57:44;;;;;;;;;;;18.20;99.90;;;;;;5015400;28;19913;-82
2022/04/04 07:00:11;;;;;;;;;;;16.20;99.90;;;;;;5032627;28;20332;-84
2022/04/04 07:02:37;;;;;;;;;;;14.50;99.90;;;;;;5034464;28;19913;-84
2022/04/04 07:05:05;;;;;;;;;;;13.90;99.90;;;;;;5033681;28;19920;-84
2022/04/04 07:07:31;;;;;;;;;;;13.50;99.90;;;;;;5034865;28;20381;-83
2022/04/04 07:09:56;;;;;;;;;;;13.40;99.90;;;;;;5015861;28;19920;-83
2022/04/04 07:12:22;;;;;;;;;;;14.20;99.90;;;;;;5032999;28;19914;-82
2022/04/04 07:14:48;;;;;;;;;;;14.60;99.90;;;;;;5032103;28;20059;-83
2022/04/04 07:17:13;;;;;;;;;;;14.60;99.90;;;;;;5014080;28;21621;-82
2022/04/04 07:19:38;;;;;;;;;;;15.30;99.90;;;;;;5037498;28;19913;-81
2022/04/04 07:22:04;;;;;;;;;;;15.30;99.90;;;;;;5019589;28;20340;-81
2022/04/04 07:24:29;;;;;;;;;;;13.90;99.90;;;;;;5041502;28;19931;-81
2022/04/04 07:26:55;;;;;;;;;;;12.70;99.90;;;;;;5014325;28;20005;-81
2022/04/04 07:29:20;;;;;;;;;;;12.00;99.90;;;;;;5014921;28;19917;-81
2022/04/04 07:31:46;;;;;;;;;;;11.70;99.90;;;;;;5028897;28;19952;-83
2022/04/04 07:34:11;;;;;;;;;;;12.00;99.90;;;;;;5017305;28;19923;-81
2022/04/04 07:36:37;;;;;;;;;;;12.80;99.90;;;;;;5047233;28;19916;-82
2022/04/04 07:39:03;;;;;;;;;;;13.90;99.90;;;;;;5035441;28;19922;-85
2022/04/04 07:41:29;;;;;;;;;;;13.50;99.90;;;;;;5032635;28;19913;-83
2022/04/04 07:43:54;;;;;;;;;;;13.00;99.90;;;;;;5013933;28;19944;-83
2022/04/04 07:46:20;;;;;;;;;;;12.60;99.90;;;;;;5029542;28;19913;-83
2022/04/04 07:48:46;;;;;;;;;;;12.50;99.90;;;;;;5030036;28;19913;-81
2022/04/04 07:51:11;;;;;;;;;;;12.60;99.90;;;;;;5036922;28;19960;-81
2022/04/04 07:53:37;;;;;;;;;;;12.90;99.90;;;;;;5031880;28;19921;-81
2022/04/04 07:56:02;;;;;;;;;;;13.00;99.90;;;;;;5029219;28;19968;-81
2022/04/04 07:58:28;;;;;;;;;;;12.50;99.90;;;;;;5027467;28;20339;-81
2022/04/04 08:00:54;;;;;;;;;;;12.20;99.90;;;;;;5031169;28;19921;-82
2022/04/04 08:03:21;;;;;;;;;;;12.30;99.90;;;;;;5026124;28;21166;-81
2022/04/04 08:05:47;;;;;;;;;;;12.80;99.90;;;;;;5036937;28;19920;-83
2022/04/04 08:08:13;;;;;;;;;;;12.90;99.90;;;;;;5035475;28;19921;-83
2022/04/04 08:10:38;;;;;;;;;;;13.40;99.90;;;;;;5016634;28;19920;-83
2022/04/04 08:13:04;;;;;;;;;;;13.70;99.90;;;;;;5013952;28;20337;-81
2022/04/04 08:15:29;;;;;;;;;;;13.60;99.90;;;;;;5032515;28;19925;-82
2022/04/04 08:17:55;;;;;;;;;;;12.80;99.90;;;;;;5015483;28;20332;-83
2022/04/04 08:20:21;;;;;;;;;;;12.40;99.90;;;;;;5010725;28;19929;-83
2022/04/04 08:22:46;;;;;;;;;;;12.20;99.90;;;;;;5033800;28;19982;-82
2022/04/04 08:25:13;;;;;;;;;;;12.30;99.90;;;;;;5044385;28;19952;-81
2022/04/04 08:27:38;;;;;;;;;;;11.50;99.90;;;;;;5028501;28;19924;-82
2022/04/04 08:30:05;;;;;;;;;;;11.40;99.90;;;;;;5035743;28;19913;-81
2022/04/04 08:32:32;;;;;;;;;;;11.10;99.90;;;;;;5036718;28;19913;-82
2022/04/04 08:34:58;;;;;;;;;;;11.10;99.90;;;;;;5037305;28;19983;-84
2022/04/04 08:37:23;;;;;;;;;;;12.40;99.90;;;;;;5035661;28;19964;-83
2022/04/04 08:39:49;;;;;;;;;;;13.50;99.90;;;;;;5036067;28;19914;-82
2022/04/04 08:42:15;;;;;;;;;;;14.40;99.90;;;;;;5045831;28;19957;-82
2022/04/04 08:44:42;;;;;;;;;;;15.20;99.90;;;;;;5026491;28;19959;-82
2022/04/04 08:47:08;;;;;;;;;;;15.60;99.90;;;;;;5039793;28;19917;-83
2022/04/04 08:49:33;;;;;;;;;;;15.90;99.90;;;;;;5020162;28;21522;-81
2022/04/04 08:51:59;;;;;;;;;;;16.20;99.90;;;;;;5035845;28;19916;-83
2022/04/04 08:54:25;;;;;;;;;;;16.30;99.90;;;;;;5041496;28;19917;-81
2022/04/04 08:56:50;;;;;;;;;;;16.50;99.90;;;;;;5034305;28;19917;-82
2022/04/04 08:59:16;;;;;;;;;;;16.70;99.90;;;;;;5040816;28;19913;-82
2022/04/04 09:01:41;;;;;;;;;;;16.50;99.90;;;;;;5049542;28;19920;-83
2022/04/04 09:04:07;;;;;;;;;;;16.20;99.90;;;;;;5038048;28;19928;-81
2022/04/04 09:06:45;;;;;;;;;;;16.50;99.90;;;;;;5039699;28;19945;-81
2022/04/04 09:09:11;;;;;;;;;;;17.00;99.90;;;;;;5052367;28;19932;-82
2022/04/04 09:11:37;;;;;;;;;;;16.80;99.90;;;;;;5028037;28;19919;-81
2022/04/04 09:14:04;;;;;;;;;;;16.40;99.90;;;;;;5040976;28;19916;-82
2022/04/04 09:16:29;;;;;;;;;;;16.20;99.90;;;;;;5035483;28;19908;-82
2022/04/04 09:18:55;;;;;;;;;;;16.20;99.90;;;;;;5021149;28;19920;-82
2022/04/04 09:21:20;;;;;;;;;;;16.10;99.90;;;;;;5031970;28;19921;-82
2022/04/04 09:23:46;;;;;;;;;;;15.80;99.90;;;;;;5037967;28;19966;-81
2022/04/04 09:26:29;;;;;;;;;;;14.80;99.90;;;;;;5047217;28;19920;-82
2022/04/04 09:29:22;;;;;;;;;;;14.50;99.90;;;;;;5038475;28;19917;-81
2022/04/04 09:32:10;;;;;;;;;;;13.30;99.90;;;;;;5044747;28;19917;-83
2022/04/04 09:34:56;;;;;;;;;;;12.50;99.90;;;;;;5017372;28;19925;-82
2022/04/04 09:37:23;;;;;;;;;;;12.30;99.90;;;;;;5037136;28;19961;-83
2022/04/04 09:39:49;;;;;;;;;;;12.10;99.90;;;;;;5036894;28;19924;-84
2022/04/04 09:42:15;;;;;;;;;;;11.80;99.90;;;;;;5019549;28;19999;-83
2022/04/04 09:44:41;;;;;;;;;;;11.40;99.90;;;;;;5038708;28;19920;-81
2022/04/04 09:47:06;;;;;;;;;;;11.20;99.90;;;;;;5037736;28;20325;-83
2022/04/04 09:49:37;;;;;;;;;;;11.30;99.90;;;;;;5036059;28;19920;-82
2022/04/04 09:52:03;;;;;;;;;;;11.50;99.90;;;;;;5037707;28;19913;-85
2022/04/04 09:54:29;;;;;;;;;;;11.30;99.90;;;;;;5036176;28;19928;-81
2022/04/04 09:57:08;;;;;;;;;;;11.10;99.90;;;;;;5037630;28;20444;-81
2022/04/04 09:59:34;;;;;;;;;;;10.60;99.90;;;;;;5039440;28;19968;-82
2022/04/04 10:02:00;;;;;;;;;;;10.10;99.90;;;;;;5037059;28;20369;-83
2022/04/04 10:04:26;;;;;;;;;;;9.90;99.90;;;;;;5035026;28;19922;-83
2022/04/04 10:06:52;;;;;;;;;;;9.40;99.90;;;;;;5033261;28;19964;-81
2022/04/04 10:09:18;;;;;;;;;;;9.30;99.90;;;;;;5036266;28;19917;-83
2022/04/04 10:11:44;;;;;;;;;;;9.20;99.90;;;;;;5040617;28;19920;-83
2022/04/04 10:14:09;;;;;;;;;;;9.00;99.90;;;;;;5037850;28;19917;-83
2022/04/04 10:16:35;;;;;;;;;;;8.90;99.90;;;;;;5024112;28;19913;-81
2022/04/04 10:19:01;;;;;;;;;;;8.90;99.90;;;;;;5039118;28;19993;-81
2022/04/04 10:21:27;;;;;;;;;;;9.10;99.90;;;;;;5021775;28;19953;-82
2022/04/04 10:23:57;;;;;;;;;;;9.10;99.90;;;;;;5034071;28;19913;-81
2022/04/04 10:26:26;;;;;;;;;;;9.10;99.90;;;;;;5034851;28;20496;-81
2022/04/04 10:29:05;;;;;;;;;;;9.10;99.90;;;;;;5037604;28;19921;-81
2022/04/04 10:31:40;;;;;;;;;;;9.10;99.90;;;;;;5034315;28;19921;-81
2022/04/04 10:34:10;;;;;;;;;;;9.20;99.90;;;;;;5033198;28;20374;-78
2022/04/04 10:36:35;;;;;;;;;;;9.10;99.90;;;;;;5013799;28;19958;-83
2022/04/04 10:39:01;;;;;;;;;;;9.20;99.90;;;;;;5038442;28;19913;-82
2022/04/04 10:41:27;;;;;;;;;;;9.20;99.90;;;;;;5035674;28;19929;-82
2022/04/04 10:43:53;;;;;;;;;;;9.20;99.90;;;;;;5030046;28;19940;-81
2022/04/04 10:46:20;;;;;;;;;;;9.10;99.90;;;;;;5032201;28;19921;-84
2022/04/04 10:48:49;;;;;;;;;;;9.10;99.90;;;;;;5014227;28;19929;-81
2022/04/04 10:51:20;;;;;;;;;;;9.20;99.90;;;;;;5035778;28;19937;-83
2022/04/04 10:53:57;;;;;;;;;;;9.10;99.90;;;;;;5035105;28;19924;-83
2022/04/04 10:56:35;;;;;;;;;;;9.20;99.90;;;;;;5036612;28;19944;-82
2022/04/04 10:59:15;;;;;;;;;;;9.30;99.90;;;;;;5036693;28;19920;-81
2022/04/04 11:01:48;;;;;;;;;;;9.20;99.90;;;;;;5016806;28;19913;-83
2022/04/04 11:04:24;;;;;;;;;;;8.90;99.90;;;;;;5016708;28;19917;-81
2022/04/04 11:09:46;;;;;;;;;;;8.60;99.90;;;;;;5029232;28;19921;-82
2022/04/04 11:12:13;;;;;;;;;;;8.40;99.90;;;;;;5033269;28;20369;-83
2022/04/04 11:14:46;;;;;;;;;;;8.20;99.90;;;;;;5014053;28;19917;-83
2022/04/04 11:17:13;;;;;;;;;;;8.00;99.90;;;;;;5018832;28;20416;-82
2022/04/04 11:19:45;;;;;;;;;;;8.00;99.90;;;;;;5035368;28;19936;-82
2022/04/04 11:22:17;;;;;;;;;;;7.90;99.90;;;;;;5029096;28;19912;-83
2022/04/04 11:24:43;;;;;;;;;;;7.70;99.90;;;;;;5030345;28;19936;-82
2022/04/04 11:27:09;;;;;;;;;;;7.70;99.90;;;;;;5021489;28;19913;-82
2022/04/04 11:29:38;;;;;;;;;;;7.70;1.00;;;;;;5036714;28;20310;-81
2022/04/04 11:32:04;;;;;;;;;;;7.60;1.00;;;;;;5031827;28;19940;-82
2022/04/04 11:34:30;;;;;;;;;;;7.60;1.00;;;;;;5013923;28;19925;-82
2022/04/04 11:36:56;;;;;;;;;;;7.60;99.90;;;;;;5037671;28;19913;-82
2022/04/04 11:39:22;;;;;;;;;;;7.50;1.00;;;;;;5017185;28;19913;-83
2022/04/04 11:41:51;;;;;;;;;;;7.30;99.90;;;;;;5036701;28;19917;-82
2022/04/04 11:44:26;;;;;;;;;;;7.30;99.90;;;;;;5017123;28;19928;-82
2022/04/04 11:47:05;;;;;;;;;;;7.30;99.90;;;;;;5016590;28;19914;-83
2022/04/04 11:49:32;;;;;;;;;;;7.20;1.00;;;;;;5030445;28;19921;-82
2022/04/04 11:52:02;;;;;;;;;;;7.20;99.90;;;;;;5038758;28;20056;-82
2022/04/04 11:54:29;;;;;;;;;;;7.20;1.00;;;;;;5012562;28;20416;-80
2022/04/04 11:56:57;;;;;;;;;;;7.10;1.00;;;;;;5027889;28;20283;-82
2022/04/04 11:59:23;;;;;;;;;;;7.00;99.90;;;;;;5032564;28;19921;-81
2022/04/04 12:01:51;;;;;;;;;;;6.90;1.00;;;;;;5037565;28;19913;-80
2022/04/04 12:04:21;;;;;;;;;;;7.00;99.90;;;;;;5038935;28;19995;-81
2022/04/04 12:06:47;;;;;;;;;;;7.00;99.90;;;;;;5043440;28;20440;-81
2022/04/04 12:09:42;;;;;;;;;;;6.90;1.00;;;;;;5038074;28;19994;-81
2022/04/04 12:12:09;;;;;;;;;;;6.80;99.90;;;;;;5009761;28;20266;-82
2022/04/04 12:14:42;;;;;;;;;;;6.80;95.70;;;;;;5020222;28;19917;-81
2022/04/04 12:17:09;;;;;;;;;;;6.80;99.90;;;;;;5033695;28;19949;-82
2022/04/04 12:19:47;;;;;;;;;;;6.80;99.90;;;;;;5030474;28;19999;-83
2022/04/04 12:25:01;;;;;;;;;;;6.70;1.00;;;;;;5036068;28;20008;-82
2022/04/04 12:27:27;;;;;;;;;;;6.90;99.90;;;;;;5035061;28;20030;-83
2022/04/04 12:30:03;;;;;;;;;;;7.00;1.00;;;;;;5041383;28;19916;-85
2022/04/04 12:32:33;;;;;;;;;;;7.10;1.00;;;;;;5042870;28;19944;-81
2022/04/04 12:35:00;;;;;;;;;;;7.10;99.90;;;;;;5038060;28;19925;-81
2022/04/04 12:37:39;;;;;;;;;;;7.00;99.90;;;;;;5041404;28;19913;-84
2022/04/04 12:40:16;;;;;;;;;;;7.10;73.60;;;;;;5039194;28;19917;-81
2022/04/04 12:42:42;;;;;;;;;;;6.90;99.90;;;;;;5027596;28;19914;-82
2022/04/04 12:45:11;;;;;;;;;;;6.90;1.00;;;;;;5036136;28;19913;-84
2022/04/04 12:47:55;;;;;;;;;;;6.90;1.00;;;;;;5039405;28;20549;-82
2022/04/04 12:50:24;;;;;;;;;;;6.90;80.20;;;;;;5040163;28;19913;-84
2022/04/04 12:52:57;;;;;;;;;;;6.90;99.90;;;;;;5036888;28;19917;-83
2022/04/04 12:55:23;;;;;;;;;;;7.00;1.00;;;;;;5018114;28;19913;-82
2022/04/04 12:57:48;;;;;;;;;;;7.10;1.00;;;;;;5042282;28;19944;-81
2022/04/04 13:00:32;;;;;;;;;;;7.20;1.00;;;;;;5044348;28;19919;-83
2022/04/04 13:03:16;;;;;;;;;;;7.20;1.00;;;;;;5034922;28;19983;-83
2022/04/04 13:05:45;;;;;;;;;;;7.30;1.00;;;;;;5036765;28;19913;-82
2022/04/04 13:08:18;;;;;;;;;;;7.50;1.00;;;;;;5038639;28;20466;-81
2022/04/04 13:10:59;;;;;;;;;;;7.60;1.00;;;;;;5020213;28;20408;-82
2022/04/04 13:13:24;;;;;;;;;;;7.50;99.90;;;;;;5041087;28;19917;-81
2022/04/04 13:15:50;;;;;;;;;;;7.60;99.90;;;;;;5023689;28;20270;-82
2022/04/04 13:18:15;;;;;;;;;;;7.50;99.90;;;;;;5040420;28;20331;-80
2022/04/04 13:20:41;;;;;;;;;;;7.30;99.90;;;;;;5016343;28;19948;-82
2022/04/04 13:23:08;;;;;;;;;;;7.20;1.00;;;;;;5035732;28;20408;-82
2022/04/04 13:25:33;;;;;;;;;;;7.00;1.00;;;;;;5039254;28;20058;-81
2022/04/04 13:27:59;;;;;;;;;;;6.90;1.00;;;;;;5021140;28;20385;-81
2022/04/04 13:30:24;;;;;;;;;;;6.80;1.00;;;;;;5039109;28;20285;-81
2022/04/04 13:32:50;;;;;;;;;;;6.90;6.20;;;;;;5037658;28;19959;-82
2022/04/04 13:35:15;;;;;;;;;;;7.00;1.00;;;;;;5026623;28;19912;-81
2022/04/04 13:37:41;;;;;;;;;;;7.10;1.00;;;;;;5031671;28;19913;-82
2022/04/04 13:40:07;;;;;;;;;;;7.00;1.00;;;;;;5039490;28;19939;-82
2022/04/04 13:42:35;;;;;;;;;;;7.10;1.00;;;;;;5039418;28;20262;-82
2022/04/04 13:45:05;;;;;;;;;;;7.20;1.00;;;;;;5023702;28;19920;-82
2022/04/04 13:47:30;;;;;;;;;;;7.10;1.00;;;;;;5040403;28;19913;-82
2022/04/04 13:49:57;;;;;;;;;;;7.10;1.00;;;;;;5038759;28;19970;-82
2022/04/04 13:52:25;;;;;;;;;;;7.10;1.00;;;;;;5020762;28;19913;-82
2022/04/04 13:54:50;;;;;;;;;;;7.00;1.00;;;;;;5036577;28;19925;-82
2022/04/04 13:57:15;;;;;;;;;;;7.00;1.00;;;;;;5040385;28;20393;-82
2022/04/04 13:59:44;;;;;;;;;;;6.90;1.00;;;;;;5039869;28;20463;-82
2022/04/04 14:02:12;;;;;;;;;;;6.90;93.10;;;;;;5026816;28;19913;-81
2022/04/04 14:04:38;;;;;;;;;;;7.00;7.70;;;;;;5030871;28;21009;-80
2022/04/04 14:07:04;;;;;;;;;;;7.00;99.90;;;;;;5023068;28;20322;-81
2022/04/04 14:09:30;;;;;;;;;;;7.10;99.90;;;;;;5021213;28;19920;-81
2022/04/04 14:11:56;;;;;;;;;;;6.90;99.90;;;;;;5037954;28;20352;-81
2022/04/04 14:14:21;;;;;;;;;;;6.90;99.90;;;;;;5022901;28;19917;-81
2022/04/04 14:16:50;;;;;;;;;;;7.00;99.90;;;;;;5041348;28;19924;-82
2022/04/04 14:19:15;;;;;;;;;;;6.90;99.90;;;;;;5025139;28;19959;-82
2022/04/04 14:21:41;;;;;;;;;;;6.90;1.00;;;;;;5041622;28;19917;-81
2022/04/04 14:24:09;;;;;;;;;;;6.80;1.00;;;;;;5040001;28;19924;-82
2022/04/04 14:26:35;;;;;;;;;;;6.80;1.00;;;;;;5041448;28;19913;-82
2022/04/04 14:29:03;;;;;;;;;;;6.70;1.00;;;;;;5042468;28;19913;-82
2022/04/04 14:31:31;;;;;;;;;;;6.70;1.00;;;;;;5023451;28;19912;-82
2022/04/04 14:33:58;;;;;;;;;;;6.60;99.90;;;;;;5038781;28;19921;-81
2022/04/04 14:36:24;;;;;;;;;;;6.60;91.50;;;;;;5035821;28;20316;-82
2022/04/04 14:38:51;;;;;;;;;;;6.60;99.90;;;;;;5041249;28;19919;-82
2022/04/04 14:41:19;;;;;;;;;;;6.60;1.00;;;;;;5041773;28;19917;-81